< < Back
Terminal Aerodrome Forecast


Current Version              Previous Versions:   1  2  3  4  5  6  7  8  9  

Terminal Aerodrome Forecast

434
FTUS42 KGSP 280810 AAA
TAFHKY
TAF AMD
KHKY 280810Z 2808/2906 00000KT P6SM SCT003 OVC008
      TEMPO 2808/2812 5SM BR OVC003
     FM281300 00000KT P6SM BKN250
     FM281700 14003KT P6SM BKN060 PROB30 2817/2823 4SM TSRA BKN040CB
     FM282300 00000KT P6SM BKN060 PROB30 2823/2903 4SM TSRA BKN040CB
     FM290300 00000KT P6SM SCT060 BKN250=

Latest METAR

344
SAUS70 KWBC 282000 RRB
MTRHKY
METAR KHKY 281953Z AUTO VRB03KT 10SM FEW050 SCT060 BKN080 30/16 A3017
RMK AO2 SLP192 T03000161


USA.gov is the U.S. government's official web portal to all federal, state and local government web resources and services.